Time;durP1;ratioP1;P1;durP2;ratioP2;P2;SDS_P1;SDS_P2;PMS_P1;PMS_P2;Temp;Humidity;BMP_temperature;BMP_pressure;BME280_temperature;BME280_humidity;BME280_pressure;Samples;Min_cycle;Max_cycle;Signal;HPM_P1;HPM_P2
2023/02/10 00:01:28;;;;;;;36.42;17.67;;;0.80;99.90;;;;;;5093777;28;20104;-67
2023/02/10 00:03:56;;;;;;;37.90;17.87;;;0.80;99.90;;;;;;5092292;28;20044;-67
2023/02/10 00:06:23;;;;;;;36.05;16.40;;;0.80;99.90;;;;;;5093383;28;20111;-68
2023/02/10 00:08:51;;;;;;;35.35;17.25;;;0.90;99.90;;;;;;5092033;28;20028;-68
2023/02/10 00:11:17;;;;;;;37.40;17.45;;;0.80;99.90;;;;;;5092015;28;20040;-67
2023/02/10 00:13:43;;;;;;;38.88;18.10;;;0.70;99.90;;;;;;5093495;28;20038;-68
2023/02/10 00:16:12;;;;;;;33.78;16.52;;;0.60;99.90;;;;;;5093346;28;20047;-68
2023/02/10 00:18:38;;;;;;;37.90;17.38;;;0.60;99.90;;;;;;5092278;28;20058;-67
2023/02/10 00:21:17;;;;;;;36.17;17.70;;;0.60;99.90;;;;;;5093434;28;20020;-67
2023/02/10 00:23:43;;;;;;;36.92;17.50;;;0.60;99.90;;;;;;5093497;28;20099;-67
2023/02/10 00:26:11;;;;;;;39.28;16.55;;;0.60;99.90;;;;;;5093560;28;20648;-67
2023/02/10 00:28:36;;;;;;;33.20;16.17;;;0.40;99.90;;;;;;5092923;28;20049;-66
2023/02/10 00:31:12;;;;;;;32.87;16.03;;;0.40;99.90;;;;;;5091690;28;20020;-66
2023/02/10 00:33:38;;;;;;;36.15;16.88;;;0.40;99.90;;;;;;5093553;28;20373;-68
2023/02/10 00:36:05;;;;;;;32.17;16.00;;;0.20;99.90;;;;;;5093814;28;20035;-66
2023/02/10 00:38:31;;;;;;;38.90;16.92;;;0.10;99.90;;;;;;5093408;28;20420;-67
2023/02/10 00:41:05;;;;;;;35.38;16.35;;;0.10;99.90;;;;;;5093480;28;20054;-68
2023/02/10 00:43:31;;;;;;;37.30;17.48;;;0.20;99.90;;;;;;5092520;28;20066;-67
2023/02/10 00:45:56;;;;;;;40.73;16.60;;;0.20;99.90;;;;;;5080469;28;20056;-67
2023/02/10 00:48:22;;;;;;;35.43;16.27;;;0.20;99.90;;;;;;5072888;28;20024;-67
2023/02/10 00:50:48;;;;;;;33.87;16.27;;;0.20;99.90;;;;;;5073466;28;20054;-67
2023/02/10 00:53:13;;;;;;;35.20;16.60;;;0.10;99.90;;;;;;5072880;28;20540;-67
2023/02/10 00:55:39;;;;;;;33.10;16.33;;;0.10;99.90;;;;;;5071317;28;20078;-67
2023/02/10 00:58:04;;;;;;;33.20;16.73;;;0.10;99.90;;;;;;5072380;28;20032;-67
2023/02/10 01:00:30;;;;;;;35.97;16.87;;;0.10;99.90;;;;;;5071312;28;20056;-67
2023/02/10 01:02:55;;;;;;;32.63;15.57;;;0.00;99.90;;;;;;5072552;28;20032;-67
2023/02/10 01:05:21;;;;;;;31.37;16.47;;;0.10;99.90;;;;;;5072564;28;20021;-67
2023/02/10 01:07:46;;;;;;;40.03;16.77;;;0.00;99.90;;;;;;5072473;28;20025;-68
2023/02/10 01:10:12;;;;;;;34.97;16.67;;;0.10;99.90;;;;;;5071000;28;20028;-67
2023/02/10 01:12:38;;;;;;;32.83;16.07;;;0.10;99.90;;;;;;5072635;28;20045;-67
2023/02/10 01:15:04;;;;;;;37.57;17.23;;;0.10;99.90;;;;;;5076172;28;20028;-67
2023/02/10 01:17:29;;;;;;;35.00;15.87;;;0.10;99.90;;;;;;5092529;28;20028;-66
2023/02/10 01:19:55;;;;;;;33.77;16.57;;;0.20;99.90;;;;;;5092563;28;20065;-66
2023/02/10 01:22:21;;;;;;;31.58;15.52;;;0.10;99.90;;;;;;5091232;28;20133;-67
2023/02/10 01:24:47;;;;;;;35.83;17.07;;;0.20;99.90;;;;;;5092842;28;20063;-67
2023/02/10 01:27:12;;;;;;;39.28;17.55;;;0.10;99.90;;;;;;5092309;28;20029;-67
2023/02/10 01:29:38;;;;;;;31.07;16.10;;;0.10;99.90;;;;;;5092709;28;20031;-66
2023/02/10 01:32:03;;;;;;;36.30;16.70;;;0.10;99.90;;;;;;5091185;28;20060;-67
2023/02/10 01:34:29;;;;;;;38.77;17.60;;;0.00;99.90;;;;;;5092444;28;20027;-67
2023/02/10 01:36:54;;;;;;;35.37;17.20;;;0.10;99.90;;;;;;5091143;28;20114;-66
2023/02/10 01:39:20;;;;;;;34.80;16.97;;;0.20;99.90;;;;;;5091110;28;20488;-67
2023/02/10 01:41:46;;;;;;;34.17;16.47;;;0.00;99.90;;;;;;5092485;28;20055;-66
2023/02/10 01:44:20;;;;;;;36.40;17.67;;;0.00;99.90;;;;;;5092229;28;20024;-67
2023/02/10 01:46:47;;;;;;;40.47;17.20;;;0.00;99.90;;;;;;5092287;28;20481;-68
2023/02/10 01:49:19;;;;;;;33.58;16.60;;;0.00;99.90;;;;;;5094793;28;20137;-67
2023/02/10 01:51:52;;;;;;;38.20;17.45;;;0.10;99.90;;;;;;5095912;28;20504;-66
2023/02/10 01:54:24;;;;;;;33.15;16.10;;;0.20;99.90;;;;;;5096973;28;20384;-67
2023/02/10 01:56:51;;;;;;;34.80;16.75;;;0.10;99.90;;;;;;5096293;28;20116;-67
2023/02/10 01:59:19;;;;;;;40.38;18.33;;;0.10;99.90;;;;;;5095973;28;20028;-67
2023/02/10 02:01:45;;;;;;;33.97;17.48;;;0.00;99.90;;;;;;5096771;28;20039;-66
2023/02/10 02:04:10;;;;;;;35.10;16.52;;;0.10;99.90;;;;;;5096850;28;20023;-66
2023/02/10 02:06:37;;;;;;;38.20;18.40;;;0.10;99.90;;;;;;5095876;28;20027;-66
2023/02/10 02:09:03;;;;;;;38.92;19.10;;;0.10;99.90;;;;;;5094470;28;20028;-66
2023/02/10 02:12:15;;;;;;;39.67;17.30;;;0.00;99.90;;;;;;5095369;28;20040;-66
2023/02/10 02:14:53;;;;;;;39.75;19.30;;;0.00;99.90;;;;;;5095563;28;20028;-66
2023/02/10 02:17:41;;;;;;;38.15;18.77;;;-0.10;99.90;;;;;;5095588;28;20032;-67
2023/02/10 02:20:41;;;;;;;39.80;18.73;;;-0.10;99.90;;;;;;5095640;28;20098;-68
2023/02/10 02:23:12;;;;;;;41.65;19.92;;;0.00;99.90;;;;;;5096138;28;20028;-67
2023/02/10 02:26:12;;;;;;;48.75;19.20;;;-0.10;99.90;;;;;;5095673;28;20016;-66
2023/02/10 02:28:51;;;;;;;42.00;19.27;;;-0.10;99.90;;;;;;5093983;28;20036;-67
2023/02/10 02:31:43;;;;;;;42.22;19.95;;;-0.10;99.90;;;;;;5095282;28;20024;-67
2023/02/10 02:34:17;;;;;;;40.70;19.05;;;-0.10;99.90;;;;;;5095430;28;20031;-66
2023/02/10 02:36:54;;;;;;;42.80;19.00;;;-0.10;99.90;;;;;;5095385;28;20020;-66
2023/02/10 02:39:22;;;;;;;41.83;18.63;;;-0.20;99.90;;;;;;5095603;28;20063;-66
2023/02/10 02:41:58;;;;;;;43.30;21.02;;;-0.20;99.90;;;;;;5095200;28;20250;-66
2023/02/10 02:44:23;;;;;;;43.42;20.00;;;-0.30;99.90;;;;;;5095445;28;20111;-67
2023/02/10 02:47:29;;;;;;;39.87;19.63;;;-0.20;99.90;;;;;;5104514;28;20097;-67
2023/02/10 02:50:04;;;;;;;41.17;19.77;;;-0.20;99.90;;;;;;5097853;28;20398;-67
2023/02/10 02:52:45;;;;;;;44.08;20.40;;;-0.10;99.90;;;;;;5099730;28;20024;-67
2023/02/10 02:55:28;;;;;;;46.25;20.55;;;-0.20;99.90;;;;;;5102152;28;20054;-67
2023/02/10 02:58:02;;;;;;;45.85;20.63;;;-0.20;99.90;;;;;;5096187;28;20540;-67
2023/02/10 03:00:30;;;;;;;41.65;19.35;;;-0.10;99.90;;;;;;5096904;28;20051;-66
2023/02/10 03:02:59;;;;;;;44.13;19.95;;;-0.20;99.90;;;;;;5094889;28;20598;-66
2023/02/10 03:05:28;;;;;;;39.28;19.02;;;-0.10;99.90;;;;;;5093323;28;20028;-66
2023/02/10 03:07:55;;;;;;;43.38;21.05;;;-0.10;99.90;;;;;;5094698;28;20027;-67
2023/02/10 03:10:21;;;;;;;44.33;20.75;;;-0.20;99.90;;;;;;5093400;28;20062;-67
2023/02/10 03:12:47;;;;;;;40.47;20.23;;;-0.20;99.90;;;;;;5087027;28;20046;-67
2023/02/10 03:15:12;;;;;;;45.00;20.93;;;-0.20;99.90;;;;;;5087292;28;20481;-66
2023/02/10 03:17:38;;;;;;;39.87;19.40;;;-0.30;99.90;;;;;;5087424;28;20274;-66
2023/02/10 03:20:04;;;;;;;45.43;21.10;;;-0.20;99.90;;;;;;5085536;28;20035;-68
2023/02/10 03:22:29;;;;;;;43.42;20.17;;;-0.20;99.90;;;;;;5087282;28;20384;-66
2023/02/10 03:24:55;;;;;;;40.37;21.00;;;-0.30;99.90;;;;;;5087550;28;20039;-67
2023/02/10 03:27:20;;;;;;;39.43;19.43;;;-0.40;99.90;;;;;;5087975;28;20087;-67
2023/02/10 03:29:48;;;;;;;39.93;20.93;;;-0.40;99.90;;;;;;5089138;28;20028;-66
2023/02/10 03:32:14;;;;;;;42.58;20.95;;;-0.20;99.90;;;;;;5089067;28;20108;-65
2023/02/10 03:34:39;;;;;;;38.83;20.00;;;-0.30;99.90;;;;;;5088970;28;20465;-66
2023/02/10 03:37:05;;;;;;;39.57;20.83;;;-0.40;99.90;;;;;;5088953;28;20371;-66
2023/02/10 03:39:30;;;;;;;47.50;21.20;;;-0.60;99.90;;;;;;5094350;28;20293;-67
2023/02/10 03:41:56;;;;;;;44.70;21.20;;;-0.50;99.90;;;;;;5094563;28;20024;-66
2023/02/10 03:44:21;;;;;;;37.97;19.93;;;-0.40;99.90;;;;;;5095217;28;20105;-67
2023/02/10 03:46:47;;;;;;;46.90;21.60;;;-0.40;99.90;;;;;;5095206;28;20032;-66
2023/02/10 03:49:13;;;;;;;41.53;20.63;;;-0.40;99.90;;;;;;5090500;28;20050;-66
2023/02/10 03:51:38;;;;;;;44.60;21.87;;;-0.30;99.90;;;;;;5089840;28;20039;-67
2023/02/10 03:54:04;;;;;;;44.93;21.50;;;-0.40;99.90;;;;;;5090858;28;20072;-67
2023/02/10 03:56:29;;;;;;;45.60;20.93;;;-0.40;99.90;;;;;;5089547;28;20036;-66
2023/02/10 03:58:55;;;;;;;44.27;22.37;;;-0.50;99.90;;;;;;5090730;28;20028;-66
2023/02/10 04:01:20;;;;;;;47.57;21.23;;;-0.60;99.90;;;;;;5093688;28;20020;-67
2023/02/10 04:03:46;;;;;;;46.97;21.83;;;-0.60;99.90;;;;;;5093221;28;20048;-66
2023/02/10 04:06:12;;;;;;;49.55;21.65;;;-0.50;99.90;;;;;;5090647;28;20270;-66
2023/02/10 04:08:38;;;;;;;45.08;21.40;;;-0.50;99.90;;;;;;5086323;28;20115;-67
2023/02/10 04:11:04;;;;;;;43.33;20.38;;;-0.50;99.90;;;;;;5086381;28;20435;-68
2023/02/10 04:13:30;;;;;;;39.63;18.98;;;-0.50;99.90;;;;;;5085799;28;20054;-67
2023/02/10 04:16:04;;;;;;;39.30;18.40;;;-0.70;99.90;;;;;;5086600;28;20341;-66
2023/02/10 04:18:30;;;;;;;41.58;20.13;;;-0.70;99.90;;;;;;5086368;28;20031;-66
2023/02/10 04:20:56;;;;;;;45.67;20.42;;;-0.80;99.90;;;;;;5086175;28;20111;-66
2023/02/10 04:23:22;;;;;;;39.37;20.43;;;-0.70;99.90;;;;;;5086451;28;20077;-67
2023/02/10 04:25:47;;;;;;;40.80;19.73;;;-0.60;99.90;;;;;;5084677;28;20379;-66
2023/02/10 04:28:13;;;;;;;38.33;20.20;;;-0.60;99.90;;;;;;5086195;28;20362;-67
2023/02/10 04:30:38;;;;;;;42.83;21.40;;;-0.70;99.90;;;;;;5086116;28;20028;-67
2023/02/10 04:33:04;;;;;;;41.17;20.77;;;-0.70;99.90;;;;;;5086122;28;20021;-67
2023/02/10 04:35:29;;;;;;;47.60;22.17;;;-0.70;99.90;;;;;;5084500;28;20024;-67
2023/02/10 04:37:56;;;;;;;39.90;20.53;;;-0.70;99.90;;;;;;5086771;28;20020;-66
2023/02/10 04:40:22;;;;;;;48.80;20.70;;;-0.70;99.90;;;;;;5085755;28;20031;-67
2023/02/10 04:42:47;;;;;;;43.50;22.70;;;-0.60;99.90;;;;;;5083719;28;20107;-67
2023/02/10 04:45:13;;;;;;;41.63;20.33;;;-0.60;99.90;;;;;;5085387;28;20051;-66
2023/02/10 04:47:38;;;;;;;43.60;20.30;;;-0.60;99.90;;;;;;5086003;28;20056;-66
2023/02/10 04:50:04;;;;;;;41.50;21.37;;;-0.60;99.90;;;;;;5085706;28;20460;-66
2023/02/10 04:52:30;;;;;;;42.35;20.73;;;-0.60;99.90;;;;;;5085749;28;20027;-66
2023/02/10 04:54:55;;;;;;;45.77;21.20;;;-0.60;99.90;;;;;;5085872;28;20119;-66
2023/02/10 04:57:21;;;;;;;46.43;20.07;;;-0.60;99.90;;;;;;5085220;28;20453;-67
2023/02/10 04:59:47;;;;;;;46.27;19.50;;;-0.60;99.90;;;;;;5085476;28;20056;-66
2023/02/10 05:02:12;;;;;;;52.30;23.13;;;-0.60;99.90;;;;;;5085283;28;20024;-66
2023/02/10 05:04:38;;;;;;;44.63;20.53;;;-0.60;99.90;;;;;;5086924;28;20389;-66
2023/02/10 05:07:03;;;;;;;45.87;21.07;;;-0.60;99.90;;;;;;5087139;28;20028;-66
2023/02/10 05:09:29;;;;;;;42.33;20.63;;;-0.70;99.90;;;;;;5084465;28;20126;-67
2023/02/10 05:11:54;;;;;;;44.27;20.50;;;-0.70;99.90;;;;;;5086206;28;20032;-66
2023/02/10 05:14:20;;;;;;;42.70;20.57;;;-0.70;99.90;;;;;;5085813;28;20361;-66
2023/02/10 05:16:46;;;;;;;47.77;21.17;;;-0.70;99.90;;;;;;5084302;28;20157;-65
2023/02/10 05:19:12;;;;;;;47.70;21.00;;;-0.80;99.90;;;;;;5085606;28;20020;-66
2023/02/10 05:21:37;;;;;;;46.05;20.83;;;-0.70;99.90;;;;;;5084173;28;20155;-68
2023/02/10 05:24:03;;;;;;;42.40;20.83;;;-0.80;99.90;;;;;;5087910;28;20107;-67
2023/02/10 05:26:28;;;;;;;40.97;20.43;;;-0.80;99.90;;;;;;5091123;28;20043;-67
2023/02/10 05:28:54;;;;;;;41.37;21.03;;;-0.70;99.90;;;;;;5089423;28;20437;-66
2023/02/10 05:31:20;;;;;;;42.80;22.30;;;-0.80;99.90;;;;;;5091086;28;20107;-65
2023/02/10 05:33:45;;;;;;;45.00;21.73;;;-0.80;99.90;;;;;;5089239;28;20039;-67
2023/02/10 05:36:11;;;;;;;37.87;19.47;;;-0.80;99.90;;;;;;5080784;28;20438;-68
2023/02/10 05:38:36;;;;;;;39.97;18.90;;;-0.80;99.90;;;;;;5090410;28;20515;-68
2023/02/10 05:41:02;;;;;;;47.40;21.43;;;-0.70;99.90;;;;;;5090797;28;20051;-68
2023/02/10 05:43:28;;;;;;;49.22;22.20;;;-0.80;99.90;;;;;;5089820;28;20073;-69
2023/02/10 05:45:53;;;;;;;45.27;21.93;;;-0.80;99.90;;;;;;5088780;28;20472;-70
2023/02/10 05:48:19;;;;;;;44.53;21.70;;;-0.90;99.90;;;;;;5091514;28;20024;-70
2023/02/10 05:50:48;;;;;;;45.23;23.67;;;-0.90;99.90;;;;;;5080866;28;20051;-71
2023/02/10 05:53:14;;;;;;;49.03;23.70;;;-0.80;99.90;;;;;;5082825;28;20017;-70
2023/02/10 05:55:40;;;;;;;52.13;24.43;;;-0.80;99.90;;;;;;5094213;28;20491;-70
2023/02/10 05:58:05;;;;;;;49.73;24.67;;;-0.80;99.90;;;;;;5093391;28;20028;-70
2023/02/10 06:00:31;;;;;;;51.17;24.60;;;-0.70;99.90;;;;;;5094356;28;20073;-70
2023/02/10 06:02:56;;;;;;;49.47;23.92;;;-0.70;99.90;;;;;;5095164;28;20449;-70
2023/02/10 06:05:22;;;;;;;49.27;23.07;;;-0.70;99.90;;;;;;5096259;28;20485;-70
2023/02/10 06:07:48;;;;;;;53.70;24.83;;;-0.70;99.90;;;;;;5096282;28;20024;-70
2023/02/10 06:10:14;;;;;;;56.67;25.10;;;-0.80;99.90;;;;;;5094687;28;20039;-69
2023/02/10 06:12:39;;;;;;;55.00;26.75;;;-0.70;99.90;;;;;;5094805;28;20350;-69
2023/02/10 06:15:05;;;;;;;52.30;24.37;;;-0.70;99.90;;;;;;5095439;28;20074;-69
2023/02/10 06:17:32;;;;;;;53.15;26.13;;;-0.70;99.90;;;;;;5094488;28;20020;-70
2023/02/10 06:19:58;;;;;;;49.15;23.35;;;-0.70;99.90;;;;;;5095810;28;20469;-70
2023/02/10 06:22:24;;;;;;;55.13;26.40;;;-0.80;99.90;;;;;;5094506;28;20105;-69
2023/02/10 06:24:49;;;;;;;51.45;26.17;;;-0.80;99.90;;;;;;5095895;28;20486;-69
2023/02/10 06:27:15;;;;;;;52.23;25.27;;;-0.80;99.90;;;;;;5096028;28;20030;-69
2023/02/10 06:29:41;;;;;;;50.22;25.90;;;-1.00;99.90;;;;;;5096307;28;20063;-70
2023/02/10 06:32:06;;;;;;;57.70;26.00;;;-1.00;99.90;;;;;;5096005;28;20024;-72
2023/02/10 06:34:32;;;;;;;51.87;25.30;;;-1.10;99.90;;;;;;5095184;28;20067;-67
2023/02/10 06:36:57;;;;;;;53.00;24.90;;;-1.10;99.90;;;;;;5095337;28;20485;-73
2023/02/10 06:39:23;;;;;;;53.40;25.60;;;-1.00;99.90;;;;;;5095868;28;20081;-73
2023/02/10 06:41:48;;;;;;;47.53;23.63;;;-1.00;99.90;;;;;;5093392;28;20028;-72
2023/02/10 06:44:14;;;;;;;47.73;23.57;;;-1.00;99.90;;;;;;5094161;28;20397;-72
2023/02/10 06:46:39;;;;;;;52.63;23.20;;;-1.00;99.90;;;;;;5095599;28;20032;-72
2023/02/10 06:49:05;;;;;;;42.27;22.43;;;-0.90;99.90;;;;;;5094537;28;20400;-72
2023/02/10 06:51:30;;;;;;;50.23;22.80;;;-1.00;99.90;;;;;;5094086;28;20493;-72
2023/02/10 06:53:56;;;;;;;44.47;22.93;;;-1.00;99.90;;;;;;5095664;28;20028;-73
2023/02/10 06:56:21;;;;;;;52.67;24.03;;;-1.00;99.90;;;;;;5095711;28;20036;-72
2023/02/10 06:58:47;;;;;;;50.27;22.97;;;-1.00;99.90;;;;;;5094345;28;20039;-73
2023/02/10 07:01:16;;;;;;;48.13;23.23;;;-1.10;99.90;;;;;;5093168;28;20024;-72
2023/02/10 07:03:45;;;;;;;47.78;22.33;;;-1.10;99.90;;;;;;5093569;28;20357;-72
2023/02/10 07:06:11;;;;;;;51.03;24.08;;;-1.10;99.90;;;;;;5093749;28;20480;-72
2023/02/10 07:08:36;;;;;;;50.43;23.87;;;-1.10;99.90;;;;;;5094482;28;20090;-72
2023/02/10 07:11:02;;;;;;;55.40;24.30;;;-1.10;99.90;;;;;;5095286;28;20036;-72
2023/02/10 07:13:27;;;;;;;54.80;25.60;;;-1.10;99.90;;;;;;5109542;22;20061;-68
2023/02/10 07:15:53;;;;;;;53.83;25.90;;;-1.10;99.90;;;;;;5053778;28;20550;-68
2023/02/10 07:18:19;;;;;;;52.53;25.67;;;-1.20;99.90;;;;;;5055518;28;20036;-67
2023/02/10 07:20:44;;;;;;;54.20;25.07;;;-1.10;99.90;;;;;;5055498;28;20020;-67
2023/02/10 07:23:10;;;;;;;56.90;25.88;;;-1.10;99.90;;;;;;5058069;28;20021;-69
2023/02/10 07:25:35;;;;;;;53.00;26.27;;;-1.00;99.90;;;;;;5058959;28;20231;-68
2023/02/10 07:28:01;;;;;;;53.47;25.37;;;-1.00;99.90;;;;;;5057782;28;20070;-67
2023/02/10 07:30:26;;;;;;;56.37;26.07;;;-1.00;99.90;;;;;;5055908;28;20029;-68
2023/02/10 07:32:52;;;;;;;55.47;26.47;;;-1.00;99.90;;;;;;5055362;28;20099;-68
2023/02/10 07:35:18;;;;;;;49.87;26.10;;;-1.00;99.90;;;;;;5055342;28;20432;-68
2023/02/10 07:37:43;;;;;;;54.97;26.13;;;-1.00;99.90;;;;;;5055311;28;20032;-70
2023/02/10 07:40:09;;;;;;;53.33;26.17;;;-1.00;99.90;;;;;;5053952;28;20452;-68
2023/02/10 07:42:35;;;;;;;56.38;26.10;;;-0.90;99.90;;;;;;5055380;28;20031;-67
2023/02/10 07:45:01;;;;;;;61.50;29.73;;;-0.80;99.90;;;;;;5039795;28;20168;-68
2023/02/10 07:47:27;;;;;;;55.00;26.20;;;-0.80;99.90;;;;;;5028186;28;20025;-70
2023/02/10 07:49:53;;;;;;;56.10;26.58;;;-0.80;99.90;;;;;;5036643;28;20037;-67
2023/02/10 07:52:20;;;;;;;54.25;26.33;;;-0.80;99.90;;;;;;5038095;28;20066;-68
2023/02/10 07:54:46;;;;;;;;;;;-0.70;99.90;;;;;;5040955;28;20076;-67
2023/02/10 07:57:11;;;;;;;51.28;24.77;;;-0.70;99.90;;;;;;5032028;28;19905;-67
2023/02/10 07:59:37;;;;;;;51.80;25.37;;;-0.70;99.90;;;;;;5031745;28;20037;-67
2023/02/10 08:02:04;;;;;;;49.15;24.80;;;-0.60;99.90;;;;;;5017553;28;20026;-68
2023/02/10 08:04:30;;;;;;;;;;;-0.60;99.90;;;;;;5017215;28;20084;-67
2023/02/10 08:06:56;;;;;;;51.47;23.95;;;-0.60;99.90;;;;;;5016215;28;19906;-67
2023/02/10 08:09:22;;;;;;;49.20;24.37;;;-0.60;99.90;;;;;;5017243;28;20029;-67
2023/02/10 08:11:48;;;;;;;48.67;23.27;;;-0.60;99.90;;;;;;5034375;28;20022;-68
2023/02/10 08:14:14;;;;;;;46.20;23.67;;;-0.40;99.90;;;;;;5044824;28;20413;-68
2023/02/10 08:16:39;;;;;;;48.53;25.83;;;-0.40;99.90;;;;;;5054887;28;20036;-67
2023/02/10 08:19:05;;;;;;;44.23;23.70;;;-0.30;99.90;;;;;;5054127;28;20075;-67
2023/02/10 08:21:30;;;;;;;47.27;22.73;;;-0.20;99.90;;;;;;5054375;28;20440;-67
2023/02/10 08:23:56;;;;;;;51.03;23.93;;;-0.20;99.90;;;;;;5052864;28;20043;-67
2023/02/10 08:26:22;;;;;;;45.03;23.17;;;-0.10;99.90;;;;;;5054346;28;20039;-67
2023/02/10 08:28:48;;;;;;;47.77;23.90;;;0.00;99.90;;;;;;5051940;28;20489;-67
2023/02/10 08:31:13;;;;;;;50.07;24.47;;;0.10;99.90;;;;;;5052346;28;20025;-69
2023/02/10 08:33:41;;;;;;;47.57;22.93;;;0.10;99.90;;;;;;5053282;28;20021;-69
2023/02/10 08:36:09;;;;;;;43.85;22.77;;;0.20;99.90;;;;;;5053508;28;20046;-69
2023/02/10 08:38:35;;;;;;;49.17;23.90;;;0.30;99.90;;;;;;5051963;28;20025;-69
2023/02/10 08:41:01;;;;;;;47.93;21.87;;;0.30;99.90;;;;;;5053533;28;20024;-68
2023/02/10 08:43:27;;;;;;;50.78;24.45;;;0.30;99.90;;;;;;5053479;28;20469;-69
2023/02/10 08:45:58;;;;;;;46.22;23.27;;;0.40;99.90;;;;;;5052923;28;20143;-68
2023/02/10 08:48:23;;;;;;;47.53;24.20;;;0.50;99.90;;;;;;5053892;28;20024;-68
2023/02/10 08:50:49;;;;;;;48.27;23.63;;;0.50;99.90;;;;;;5052273;28;20021;-68
2023/02/10 08:53:15;;;;;;;48.63;23.27;;;0.60;99.90;;;;;;5061524;28;20032;-68
2023/02/10 08:55:41;;;;;;;50.53;23.30;;;0.60;99.90;;;;;;5052629;28;20029;-67
2023/02/10 08:58:06;;;;;;;46.67;22.60;;;0.70;99.90;;;;;;5053160;28;20020;-68
2023/02/10 09:00:32;;;;;;;43.10;22.07;;;0.70;99.90;;;;;;5056071;28;20037;-69
2023/02/10 09:02:58;;;;;;;46.35;22.73;;;0.80;99.90;;;;;;5057350;28;20428;-67
2023/02/10 09:05:23;;;;;;;50.13;23.60;;;0.80;99.90;;;;;;5057094;28;20054;-68
2023/02/10 09:07:50;;;;;;;45.97;22.27;;;0.90;99.90;;;;;;5034269;28;20021;-68
2023/02/10 09:10:16;;;;;;;44.25;21.33;;;1.10;99.90;;;;;;5023589;28;20116;-68
2023/02/10 09:12:42;;;;;;;50.00;22.65;;;1.10;99.90;;;;;;5015832;28;20034;-67
2023/02/10 09:15:08;;;;;;;48.58;23.88;;;1.20;99.90;;;;;;5031471;28;20041;-68
2023/02/10 09:17:34;;;;;;;50.30;23.58;;;1.30;99.90;;;;;;5037171;28;20029;-68
2023/02/10 09:20:00;;;;;;;47.30;23.40;;;1.30;99.90;;;;;;5035325;28;20029;-68
2023/02/10 09:22:25;;;;;;;44.20;22.13;;;1.40;99.90;;;;;;5036900;28;20033;-67
2023/02/10 09:24:52;;;;;;;46.67;22.83;;;1.50;99.90;;;;;;5035363;28;20037;-67
2023/02/10 09:27:19;;;;;;;44.95;22.88;;;1.50;99.90;;;;;;5035577;28;20138;-68
2023/02/10 09:29:45;;;;;;;51.00;24.33;;;1.60;99.90;;;;;;5036562;28;20064;-69
2023/02/10 09:32:11;;;;;;;46.72;23.15;;;1.60;99.90;;;;;;5035328;28;20136;-68
2023/02/10 09:34:36;;;;;;;47.72;24.38;;;1.60;99.90;;;;;;5036542;28;20032;-68
2023/02/10 09:37:03;;;;;;;48.83;24.90;;;1.80;99.90;;;;;;5037523;28;20029;-68
2023/02/10 09:39:29;;;;;;;49.53;26.00;;;1.90;99.90;;;;;;5036414;28;20036;-68
2023/02/10 09:42:08;;;;;;;49.03;25.40;;;2.20;99.90;;;;;;5036261;28;20096;-69
2023/02/10 09:44:36;;;;;;;48.88;23.42;;;2.30;99.90;;;;;;5035346;28;20033;-68
2023/02/10 09:47:26;;;;;;;52.47;25.02;;;3.10;99.90;;;;;;5034891;28;20056;-67
2023/02/10 09:50:54;;;;;;;41.58;22.58;;;3.90;99.90;;;;;;5036031;28;20029;-69
2023/02/10 09:53:24;;;;;;;43.30;23.20;;;5.80;99.90;;;;;;4979947;28;20070;-68
2023/02/10 09:55:57;;;;;;;43.80;23.42;;;7.20;99.90;;;;;;4970143;28;20030;-70
2023/02/10 09:58:55;;;;;;;48.63;24.00;;;8.00;99.90;;;;;;4975306;28;20060;-68
2023/02/10 10:01:36;;;;;;;43.85;23.58;;;9.60;97.60;;;;;;4964449;28;20403;-68
2023/02/10 10:04:20;;;;;;;44.42;25.13;;;10.20;95.10;;;;;;4973076;28;20065;-69
2023/02/10 10:06:49;;;;;;;44.03;25.27;;;9.80;94.60;;;;;;4962331;28;20101;-68
2023/02/10 10:09:32;;;;;;;42.83;26.00;;;9.10;95.10;;;;;;4975081;28;20059;-69
2023/02/10 10:11:59;;;;;;;45.83;25.98;;;8.70;96.10;;;;;;4976627;28;20039;-67
2023/02/10 10:14:40;;;;;;;45.97;25.77;;;8.40;96.50;;;;;;4959173;28;20042;-68
2023/02/10 10:17:33;;;;;;;50.35;27.80;;;8.20;97.10;;;;;;4959990;28;20046;-69
2023/02/10 10:20:25;;;;;;;43.22;26.83;;;8.10;97.30;;;;;;4976740;28;20069;-69
2023/02/10 10:23:19;;;;;;;50.97;27.67;;;8.30;97.20;;;;;;4967555;28;20121;-68
2023/02/10 10:26:04;;;;;;;49.47;28.52;;;8.60;96.80;;;;;;5017028;28;20052;-69
2023/02/10 10:28:51;;;;;;;44.33;27.85;;;8.90;96.20;;;;;;5018224;28;20101;-68
2023/02/10 10:31:39;;;;;;;49.63;29.73;;;8.70;96.30;;;;;;5036470;28;20032;-68
2023/02/10 10:34:07;;;;;;;48.20;28.63;;;8.90;96.20;;;;;;5036525;28;20071;-69
2023/02/10 10:36:46;;;;;;;48.88;29.65;;;9.10;95.70;;;;;;5035864;28;20018;-69
2023/02/10 10:39:41;;;;;;;46.15;29.20;;;9.50;95.20;;;;;;5035652;28;20032;-69
2023/02/10 10:42:23;;;;;;;47.38;28.83;;;9.40;94.90;;;;;;5026361;28;20084;-69
2023/02/10 10:44:53;;;;;;;44.67;28.13;;;9.50;94.50;;;;;;5033987;28;20027;-68
2023/02/10 10:47:44;;;;;;;49.25;30.05;;;9.70;94.20;;;;;;5035359;28;20075;-69
2023/02/10 10:50:16;;;;;;;48.00;29.65;;;10.00;93.80;;;;;;5014216;28;20057;-69
2023/02/10 10:52:43;;;;;;;47.15;29.15;;;10.50;93.40;;;;;;5015196;28;20037;-69
2023/02/10 10:55:35;;;;;;;47.90;29.55;;;10.30;93.20;;;;;;5013948;28;20029;-70
2023/02/10 10:58:07;;;;;;;43.92;28.77;;;10.40;93.10;;;;;;5014763;28;20036;-70
2023/02/10 11:00:33;;;;;;;43.10;27.63;;;10.80;92.80;;;;;;5014685;28;20490;-69
2023/02/10 11:03:04;;;;;;;44.53;29.30;;;11.40;91.60;;;;;;5015097;28;20026;-70
2023/02/10 11:05:36;;;;;;;50.08;29.63;;;11.40;91.00;;;;;;5015105;28;20030;-69
2023/02/10 11:08:05;;;;;;;48.60;29.55;;;11.00;91.30;;;;;;5013944;28;20030;-69
2023/02/10 11:10:53;;;;;;;43.22;29.05;;;11.20;90.80;;;;;;5014051;28;20501;-67
2023/02/10 11:13:21;;;;;;;46.92;27.17;;;11.00;90.70;;;;;;5014979;28;20038;-68
2023/02/10 11:15:48;;;;;;;45.13;27.65;;;10.70;90.50;;;;;;5013614;28;20033;-67
2023/02/10 11:18:20;;;;;;;43.97;26.80;;;10.60;90.80;;;;;;5014960;28;20060;-67
2023/02/10 11:20:58;;;;;;;46.13;28.60;;;10.20;90.80;;;;;;5014910;28;20037;-67
2023/02/10 11:23:26;;;;;;;46.47;29.00;;;9.50;91.90;;;;;;5013658;28;20033;-67
2023/02/10 11:26:06;;;;;;;48.05;28.55;;;8.60;92.90;;;;;;5013692;28;20104;-67
2023/02/10 11:28:33;;;;;;;49.35;26.77;;;8.00;94.00;;;;;;5013394;28;20493;-67
2023/02/10 11:31:06;;;;;;;47.60;26.95;;;7.60;94.30;;;;;;5014493;28;20018;-67
2023/02/10 11:33:34;;;;;;;47.65;27.13;;;7.10;95.10;;;;;;5013806;28;20025;-68
2023/02/10 11:36:07;;;;;;;47.65;26.38;;;6.90;95.80;;;;;;5014978;28;20051;-69
2023/02/10 11:38:34;;;;;;;46.63;26.88;;;6.90;96.10;;;;;;5014540;28;20606;-69
2023/02/10 11:41:08;;;;;;;49.08;26.13;;;6.80;96.20;;;;;;5013376;28;20034;-69
2023/02/10 11:43:52;;;;;;;46.45;24.75;;;6.60;96.40;;;;;;5014269;28;20382;-69
2023/02/10 11:46:24;;;;;;;47.97;24.35;;;6.50;96.30;;;;;;5023817;28;20029;-69
2023/02/10 11:49:02;;;;;;;45.80;23.58;;;6.40;96.00;;;;;;5034549;28;20474;-70
2023/02/10 11:51:29;;;;;;;43.38;23.58;;;6.30;96.30;;;;;;5032638;28;20121;-69
2023/02/10 11:53:57;;;;;;;48.42;24.38;;;6.00;96.80;;;;;;5033815;28;20520;-69
2023/02/10 11:59:40;;;;;;;47.70;23.83;;;6.00;97.30;;;;;;5027134;28;20076;-69
2023/02/10 12:02:28;;;;;;;44.65;24.15;;;6.00;97.50;;;;;;5021500;28;20092;-69
2023/02/10 12:04:59;;;;;;;;;;;6.10;97.40;;;;;;5033118;28;20056;-69
2023/02/10 12:07:42;;;;;;;43.85;24.40;;;6.10;97.80;;;;;;5035942;28;19905;-69
2023/02/10 12:10:15;;;;;;;44.45;22.83;;;6.20;97.70;;;;;;5031808;28;20164;-70
2023/02/10 12:12:49;;;;;;;43.63;23.02;;;6.30;96.90;;;;;;5022047;28;20065;-70
2023/02/10 12:15:36;;;;;;;40.25;21.98;;;6.30;96.40;;;;;;5024969;28;20069;-71
2023/02/10 12:18:43;;;;;;;51.88;24.70;;;6.30;96.10;;;;;;5035014;28;20351;-71
2023/02/10 12:21:20;;;;;;;43.92;22.35;;;6.40;96.40;;;;;;4975697;28;20039;-69
2023/02/10 12:24:17;;;;;;;44.53;23.17;;;6.40;96.70;;;;;;4975193;28;20026;-68
2023/02/10 12:27:00;;;;;;;40.05;19.48;;;6.40;96.00;;;;;;4970787;28;20089;-68
2023/02/10 12:29:46;;;;;;;39.53;20.45;;;6.30;95.50;;;;;;4957776;28;20044;-69
2023/02/10 12:32:45;;;;;;;39.60;21.63;;;6.40;95.00;;;;;;4974281;28;20049;-70
2023/02/10 12:35:32;;;;;;;38.83;19.98;;;6.50;94.70;;;;;;4975952;28;20035;-68
2023/02/10 12:38:08;;;;;;;35.23;18.17;;;6.70;93.90;;;;;;4959041;28;20105;-69
2023/02/10 12:40:46;;;;;;;37.47;18.55;;;6.70;93.30;;;;;;4974735;28;20026;-68
2023/02/10 12:43:33;;;;;;;36.10;18.20;;;6.60;93.40;;;;;;4975627;28;20027;-68
2023/02/10 12:46:10;;;;;;;36.97;19.33;;;6.60;92.80;;;;;;4956957;28;20065;-69
2023/02/10 12:49:04;;;;;;;40.72;19.27;;;6.60;93.10;;;;;;4974526;28;20039;-69
2023/02/10 12:51:59;;;;;;;38.65;20.38;;;6.60;93.50;;;;;;4974037;28;20507;-69